createdAt,value
2023-01-31T00:00:35.192Z,2.47
2023-01-31T00:03:02.114Z,3.00
2023-01-31T00:05:35.662Z,3.50
2023-01-31T00:08:02.650Z,3.00
2023-01-31T00:10:36.181Z,2.80
2023-01-31T00:13:03.391Z,2.72
2023-01-31T00:15:36.931Z,2.97
2023-01-31T00:18:10.666Z,2.30
2023-01-31T00:20:43.680Z,3.13
2023-01-31T00:23:16.755Z,2.90
2023-01-31T00:25:43.748Z,2.15
2023-01-31T00:28:17.672Z,2.55
2023-01-31T00:30:44.511Z,2.15
2023-01-31T00:33:17.752Z,2.33
2023-01-31T00:35:44.591Z,2.83
2023-01-31T00:38:11.385Z,2.20
2023-01-31T00:40:44.677Z,2.45
2023-01-31T00:43:11.465Z,2.80
2023-01-31T00:45:44.777Z,2.35
2023-01-31T00:48:17.745Z,2.38
2023-01-31T00:50:44.570Z,2.85
2023-01-31T00:53:17.679Z,2.45
2023-01-31T00:55:44.921Z,2.15
2023-01-31T00:58:11.733Z,2.35
2023-01-31T01:00:44.867Z,2.20
2023-01-31T01:03:11.772Z,2.95
2023-01-31T01:05:45.680Z,2.22
2023-01-31T01:08:12.501Z,2.30
2023-01-31T01:10:45.754Z,2.53
2023-01-31T01:13:12.631Z,2.50
2023-01-31T01:15:52.774Z,2.58
2023-01-31T01:18:20.018Z,2.50
2023-01-31T01:20:46.849Z,3.05
2023-01-31T01:23:26.910Z,2.60
2023-01-31T01:25:53.802Z,2.92
2023-01-31T01:28:20.578Z,2.67
2023-01-31T01:30:53.810Z,3.00
2023-01-31T01:33:20.676Z,2.88
2023-01-31T01:35:53.730Z,2.90
2023-01-31T01:38:21.198Z,3.03
2023-01-31T01:40:54.797Z,2.65
2023-01-31T01:43:21.862Z,2.92
2023-01-31T01:45:48.921Z,3.05
2023-01-31T01:48:24.792Z,3.65
2023-01-31T01:50:51.737Z,3.00
2023-01-31T01:53:28.793Z,2.30
2023-01-31T01:56:07.114Z,2.60
2023-01-31T01:58:51.163Z,3.10
2023-01-31T02:01:19.353Z,3.80
2023-01-31T02:03:55.797Z,3.20
2023-01-31T02:06:23.096Z,3.53
2023-01-31T02:08:56.833Z,2.90
2023-01-31T02:11:27.384Z,3.40
2023-01-31T02:14:08.797Z,3.33
2023-01-31T02:16:36.340Z,3.85
2023-01-31T02:19:13.777Z,3.40
2023-01-31T02:22:14.956Z,3.70
2023-01-31T02:25:12.848Z,3.88
2023-01-31T02:27:48.863Z,3.65
2023-01-31T02:30:18.471Z,3.95
2023-01-31T02:33:13.854Z,3.70
2023-01-31T02:35:56.710Z,3.85
2023-01-31T02:38:57.848Z,3.45
2023-01-31T02:41:48.847Z,3.33
2023-01-31T02:45:05.863Z,3.35
2023-01-31T02:47:47.873Z,3.55
2023-01-31T02:50:37.898Z,4.10
2023-01-31T02:53:11.030Z,3.72
2023-01-31T02:56:10.890Z,4.80
2023-01-31T02:58:39.797Z,3.72
2023-01-31T03:01:16.984Z,3.95
2023-01-31T03:03:50.882Z,4.20
2023-01-31T03:06:37.894Z,4.15
2023-01-31T03:09:46.071Z,4.47
2023-01-31T03:12:33.941Z,5.07
2023-01-31T03:15:20.297Z,5.07
2023-01-31T03:18:17.904Z,4.57
2023-01-31T03:21:06.788Z,4.70
2023-01-31T03:23:43.921Z,4.78
2023-01-31T03:26:18.051Z,4.93
2023-01-31T03:28:46.498Z,6.05
2023-01-31T03:31:32.047Z,5.53
2023-01-31T03:34:04.123Z,4.97
2023-01-31T03:36:48.949Z,5.38
2023-01-31T03:39:45.947Z,5.25
2023-01-31T03:42:32.549Z,6.13
2023-01-31T03:45:24.032Z,4.82
2023-01-31T03:47:59.994Z,4.35
2023-01-31T03:50:30.872Z,6.13
2023-01-31T03:53:12.019Z,6.60
2023-01-31T03:56:11.247Z,6.43
2023-01-31T03:58:49.989Z,6.53
2023-01-31T04:01:25.980Z,6.20
2023-01-31T04:03:58.049Z,6.20
2023-01-31T04:06:32.996Z,6.65
2023-01-31T04:09:00.030Z,6.38
2023-01-31T04:11:33.982Z,6.15
2023-01-31T04:14:07.997Z,6.35
2023-01-31T04:16:41.026Z,6.75
2023-01-31T04:19:07.903Z,6.38
2023-01-31T04:21:41.064Z,6.10
2023-01-31T04:24:10.393Z,7.03
2023-01-31T04:26:37.959Z,8.27
2023-01-31T04:29:12.109Z,7.45
2023-01-31T04:31:40.232Z,7.55
2023-01-31T04:34:08.065Z,8.13
2023-01-31T04:36:42.065Z,8.43
2023-01-31T04:39:11.189Z,7.47
2023-01-31T04:41:44.033Z,8.00
2023-01-31T04:44:12.009Z,8.10
2023-01-31T04:46:45.031Z,8.63
2023-01-31T04:49:18.141Z,7.82
2023-01-31T04:51:44.979Z,7.38
2023-01-31T04:54:11.754Z,8.82
2023-01-31T04:56:45.070Z,8.32
2023-01-31T04:59:18.085Z,7.82
2023-01-31T05:01:48.330Z,8.25
2023-01-31T05:04:22.096Z,9.48
2023-01-31T05:06:49.395Z,8.43
2023-01-31T05:09:16.636Z,8.77
2023-01-31T05:11:50.093Z,8.43
2023-01-31T05:14:17.649Z,8.73
2023-01-31T05:16:54.090Z,9.07
2023-01-31T05:19:27.098Z,7.80
2023-01-31T05:22:05.232Z,8.45
2023-01-31T05:24:33.623Z,8.77
2023-01-31T05:27:08.424Z,8.45
2023-01-31T05:29:35.296Z,8.55
2023-01-31T05:32:03.781Z,8.05
2023-01-31T05:34:40.124Z,8.68
2023-01-31T05:37:13.132Z,8.45
2023-01-31T05:39:40.081Z,7.82
2023-01-31T05:42:13.150Z,7.78
2023-01-31T05:44:39.921Z,8.00
2023-01-31T05:47:06.952Z,8.57
2023-01-31T05:49:41.506Z,8.10
2023-01-31T05:52:08.390Z,8.63
2023-01-31T05:54:35.373Z,8.25
2023-01-31T05:57:10.175Z,7.70
2023-01-31T05:59:43.166Z,7.57
2023-01-31T06:02:18.312Z,8.35
2023-01-31T06:04:45.166Z,7.97
2023-01-31T06:07:11.941Z,8.32
2023-01-31T06:09:47.328Z,7.72
2023-01-31T06:12:15.069Z,7.60
2023-01-31T06:14:41.885Z,7.53
2023-01-31T06:17:15.227Z,6.20
2023-01-31T06:19:42.005Z,7.10
2023-01-31T06:22:09.786Z,7.03
2023-01-31T06:24:49.194Z,6.28
2023-01-31T06:27:16.135Z,7.22
2023-01-31T06:29:49.351Z,7.45
2023-01-31T06:32:18.774Z,6.30
2023-01-31T06:34:45.738Z,6.55
2023-01-31T06:37:19.277Z,6.22
2023-01-31T06:39:46.142Z,7.47
2023-01-31T06:42:13.733Z,6.43
2023-01-31T06:44:47.379Z,7.07
2023-01-31T06:47:14.761Z,7.45
2023-01-31T06:49:41.724Z,6.60
2023-01-31T06:52:15.407Z,7.68
2023-01-31T06:54:42.255Z,7.47
2023-01-31T06:57:08.987Z,7.45
2023-01-31T06:59:47.900Z,7.15
2023-01-31T07:02:15.061Z,5.93
2023-01-31T07:04:48.273Z,6.63
2023-01-31T07:07:15.440Z,6.10
2023-01-31T07:09:49.314Z,6.68
2023-01-31T07:12:22.456Z,7.05
2023-01-31T07:14:56.726Z,6.57
2023-01-31T07:17:23.547Z,7.18
2023-01-31T07:19:50.464Z,7.15
2023-01-31T07:22:23.281Z,7.82
2023-01-31T07:24:50.964Z,6.13
2023-01-31T07:27:17.998Z,5.57
2023-01-31T07:29:58.321Z,6.35
2023-01-31T07:32:30.047Z,6.65
2023-01-31T07:35:03.319Z,6.55
2023-01-31T07:37:32.227Z,6.07
2023-01-31T07:39:59.059Z,6.07
2023-01-31T07:42:35.615Z,6.55
2023-01-31T07:45:13.216Z,5.45
2023-01-31T07:47:55.410Z,6.18
2023-01-31T07:50:28.356Z,5.47
2023-01-31T07:52:58.121Z,5.60
2023-01-31T07:55:25.770Z,5.30
2023-01-31T07:57:59.354Z,5.95
2023-01-31T08:00:51.358Z,5.47
2023-01-31T08:03:33.686Z,5.72
2023-01-31T08:06:17.665Z,6.10
2023-01-31T08:08:45.498Z,5.68
2023-01-31T08:11:12.559Z,5.25
2023-01-31T08:13:46.725Z,5.95
2023-01-31T08:16:14.359Z,5.85
2023-01-31T08:18:41.803Z,6.30
2023-01-31T08:21:18.354Z,5.28
2023-01-31T08:23:46.175Z,5.85
2023-01-31T08:26:25.552Z,5.07
2023-01-31T08:31:29.725Z,4.68
2023-01-31T08:34:04.391Z,5.90
2023-01-31T08:36:32.000Z,5.60
2023-01-31T08:38:59.818Z,5.22
2023-01-31T08:41:34.679Z,5.55
2023-01-31T08:44:04.742Z,5.93
2023-01-31T08:46:42.128Z,5.50
2023-01-31T08:49:11.382Z,5.70
2023-01-31T08:51:44.571Z,5.65
2023-01-31T08:54:12.924Z,5.90
2023-01-31T08:56:39.834Z,5.45
2023-01-31T08:59:13.489Z,5.22
2023-01-31T09:01:42.471Z,5.53
2023-01-31T09:04:15.630Z,5.13
2023-01-31T09:06:42.461Z,5.45
2023-01-31T09:09:09.271Z,5.35
2023-01-31T09:11:42.826Z,6.18
2023-01-31T09:14:09.698Z,5.25
2023-01-31T09:16:36.564Z,5.30
2023-01-31T09:19:10.583Z,5.65
2023-01-31T09:21:37.434Z,5.38
2023-01-31T09:24:04.461Z,5.70
2023-01-31T09:26:38.577Z,5.50
2023-01-31T09:29:05.562Z,5.63
2023-01-31T09:31:39.703Z,5.68
2023-01-31T09:34:06.597Z,5.65
2023-01-31T09:36:35.700Z,5.60
2023-01-31T09:39:09.527Z,5.30
2023-01-31T09:41:44.542Z,6.15
2023-01-31T09:44:24.735Z,5.38
2023-01-31T09:47:09.703Z,5.40
2023-01-31T09:49:56.236Z,6.10
2023-01-31T09:52:29.737Z,4.97
2023-01-31T09:54:56.815Z,5.57
2023-01-31T09:57:26.752Z,5.70
2023-01-31T10:00:16.844Z,5.32
2023-01-31T10:02:52.184Z,5.25
2023-01-31T10:05:29.314Z,5.05
2023-01-31T10:08:13.353Z,5.38
2023-01-31T10:10:54.824Z,5.00
2023-01-31T10:13:36.992Z,5.57
2023-01-31T10:16:10.723Z,5.75
2023-01-31T10:18:51.245Z,5.22
2023-01-31T10:21:32.730Z,4.60
2023-01-31T10:24:23.850Z,4.63
2023-01-31T10:26:59.589Z,4.63
2023-01-31T10:29:34.818Z,4.13
2023-01-31T10:32:08.717Z,4.57
2023-01-31T10:35:03.761Z,4.18
2023-01-31T10:37:35.707Z,4.13
2023-01-31T10:40:48.615Z,3.97
2023-01-31T10:43:47.327Z,4.18
2023-01-31T10:46:22.604Z,4.90
2023-01-31T10:48:49.487Z,4.45
2023-01-31T10:52:15.632Z,4.97
2023-01-31T10:54:56.712Z,4.95
2023-01-31T11:00:33.650Z,3.70
2023-01-31T11:03:06.874Z,4.22
2023-01-31T11:05:40.040Z,4.22
2023-01-31T11:08:30.690Z,4.10
2023-01-31T11:11:05.777Z,4.53
2023-01-31T11:13:32.626Z,4.65
2023-01-31T11:16:01.749Z,3.85
2023-01-31T11:18:40.699Z,4.05
2023-01-31T11:21:08.168Z,4.22
2023-01-31T11:23:36.454Z,4.25
2023-01-31T11:26:10.716Z,4.00
2023-01-31T11:28:39.560Z,3.65
2023-01-31T11:31:37.809Z,4.30
2023-01-31T11:34:25.561Z,3.63
2023-01-31T11:36:59.692Z,3.33
2023-01-31T11:39:34.691Z,5.13
2023-01-31T11:42:17.247Z,4.32
2023-01-31T11:45:08.847Z,3.80
2023-01-31T11:47:51.766Z,3.97
2023-01-31T11:50:30.761Z,4.40
2023-01-31T11:53:06.745Z,3.47
2023-01-31T11:55:39.280Z,3.25
2023-01-31T11:58:31.744Z,4.07
2023-01-31T12:01:01.087Z,4.22
2023-01-31T12:03:35.897Z,4.10
2023-01-31T12:06:06.677Z,4.22
2023-01-31T12:08:46.730Z,3.67
2023-01-31T12:11:19.907Z,3.70
2023-01-31T12:14:13.774Z,4.30
2023-01-31T12:16:41.644Z,4.03
2023-01-31T12:19:18.923Z,3.95
2023-01-31T12:21:57.667Z,4.22
2023-01-31T12:24:52.800Z,4.65
2023-01-31T12:27:28.795Z,3.85
2023-01-31T12:30:11.202Z,4.90
2023-01-31T12:33:16.793Z,3.38
2023-01-31T12:36:22.899Z,3.85
2023-01-31T12:39:06.784Z,4.05
2023-01-31T12:41:48.788Z,4.63
2023-01-31T12:44:51.826Z,4.25
2023-01-31T12:47:42.127Z,4.20
2023-01-31T12:50:51.816Z,4.05
2023-01-31T12:53:38.849Z,4.70
2023-01-31T12:56:25.028Z,3.95
2023-01-31T12:59:15.291Z,4.05
2023-01-31T13:02:22.875Z,5.18
2023-01-31T13:04:57.926Z,4.20
2023-01-31T13:07:46.834Z,3.75
2023-01-31T13:10:52.842Z,4.53
2023-01-31T13:13:32.903Z,4.43
2023-01-31T13:16:09.979Z,5.60
2023-01-31T13:18:37.620Z,5.05
2023-01-31T13:21:07.785Z,5.47
2023-01-31T13:23:48.935Z,4.57
2023-01-31T13:26:35.922Z,4.22
2023-01-31T13:29:23.815Z,5.53
2023-01-31T13:32:25.876Z,5.55
2023-01-31T13:35:02.861Z,4.38
2023-01-31T13:37:41.868Z,5.97
2023-01-31T13:40:14.166Z,6.22
2023-01-31T13:42:41.033Z,5.38
2023-01-31T13:45:17.975Z,4.95
2023-01-31T13:47:50.276Z,5.70
2023-01-31T13:50:17.694Z,5.55
2023-01-31T13:52:58.080Z,4.70
2023-01-31T13:55:44.964Z,4.60
2023-01-31T13:58:34.407Z,4.30
2023-01-31T14:01:10.908Z,6.00
2023-01-31T14:04:25.932Z,4.55
2023-01-31T14:06:58.883Z,4.25
2023-01-31T14:09:29.880Z,5.38
2023-01-31T14:12:08.007Z,5.55
2023-01-31T14:14:37.691Z,4.40
2023-01-31T14:17:21.998Z,5.68
2023-01-31T14:19:51.502Z,4.32
2023-01-31T14:22:21.144Z,5.45
2023-01-31T14:25:00.201Z,3.97
2023-01-31T14:28:03.368Z,4.95
2023-01-31T14:30:43.037Z,3.85
2023-01-31T14:33:13.643Z,4.22
2023-01-31T14:36:34.993Z,4.07
2023-01-31T14:39:27.494Z,4.38
2023-01-31T14:42:23.026Z,5.40
2023-01-31T14:44:59.381Z,5.35
2023-01-31T14:47:38.029Z,4.18
2023-01-31T14:50:38.991Z,4.93
2023-01-31T14:53:36.014Z,4.20
2023-01-31T14:56:24.281Z,4.90
2023-01-31T14:58:58.007Z,4.13
2023-01-31T15:01:34.988Z,4.05
2023-01-31T15:04:10.075Z,4.03
2023-01-31T15:06:51.041Z,3.92
2023-01-31T15:09:28.045Z,4.13
2023-01-31T15:11:58.476Z,3.50
2023-01-31T15:14:48.112Z,2.97
2023-01-31T15:17:33.711Z,4.03
2023-01-31T15:20:29.029Z,3.72
2023-01-31T15:22:59.826Z,3.17
2023-01-31T15:25:53.047Z,3.65
2023-01-31T15:28:25.201Z,3.17
2023-01-31T15:31:00.167Z,3.10
2023-01-31T15:33:36.052Z,3.50
2023-01-31T15:36:21.116Z,3.63
2023-01-31T15:38:54.483Z,3.05
2023-01-31T15:41:33.065Z,3.08
2023-01-31T15:44:21.453Z,3.03
2023-01-31T15:46:57.117Z,3.17
2023-01-31T15:49:44.255Z,3.20
2023-01-31T15:52:20.102Z,3.95
2023-01-31T15:55:02.815Z,4.35
2023-01-31T15:57:51.078Z,4.07
2023-01-31T16:00:28.108Z,3.40
2023-01-31T16:03:00.825Z,3.45
2023-01-31T16:05:40.132Z,4.68
2023-01-31T16:08:34.848Z,3.50
2023-01-31T16:11:16.131Z,3.28
2023-01-31T16:13:43.452Z,3.67
2023-01-31T16:16:13.955Z,3.53
2023-01-31T16:18:53.146Z,3.20
2023-01-31T16:21:37.109Z,3.45
2023-01-31T16:24:23.160Z,4.20
2023-01-31T16:27:12.866Z,4.53
2023-01-31T16:29:50.147Z,4.13
2023-01-31T16:32:25.418Z,3.90
2023-01-31T16:35:02.171Z,4.68
2023-01-31T16:37:43.208Z,4.20
2023-01-31T16:40:22.614Z,4.18
2023-01-31T16:43:03.193Z,5.13
2023-01-31T16:45:31.286Z,4.47
2023-01-31T16:48:33.190Z,5.43
2023-01-31T16:51:21.297Z,4.35
2023-01-31T16:54:33.286Z,4.53
2023-01-31T16:57:01.568Z,4.47
2023-01-31T16:59:41.202Z,5.38
2023-01-31T17:02:25.181Z,5.30
2023-01-31T17:05:07.983Z,4.78
2023-01-31T17:10:09.766Z,5.28
2023-01-31T17:12:41.029Z,4.20
2023-01-31T17:15:22.426Z,4.13
2023-01-31T17:17:50.023Z,4.32
2023-01-31T17:20:26.228Z,5.53
2023-01-31T17:23:02.241Z,4.85
2023-01-31T17:25:41.212Z,5.03
2023-01-31T17:28:08.385Z,4.15
2023-01-31T17:30:46.325Z,5.47
2023-01-31T17:33:15.833Z,4.28
2023-01-31T17:35:53.217Z,4.57
2023-01-31T17:38:23.113Z,4.22
2023-01-31T17:40:56.295Z,4.93
2023-01-31T17:43:25.077Z,6.90
2023-01-31T17:45:58.277Z,5.85
2023-01-31T17:48:26.958Z,5.10
2023-01-31T17:51:00.295Z,4.05
2023-01-31T17:53:40.453Z,4.13
2023-01-31T17:56:21.251Z,4.65
2023-01-31T17:58:49.438Z,4.90
2023-01-31T18:01:23.316Z,4.32
2023-01-31T18:03:50.622Z,4.15
2023-01-31T18:06:24.291Z,3.75
2023-01-31T18:08:52.462Z,3.53
2023-01-31T18:11:26.455Z,3.60
2023-01-31T18:13:53.257Z,4.10
2023-01-31T18:16:21.664Z,4.43
2023-01-31T18:18:55.315Z,3.72
2023-01-31T18:21:23.266Z,4.25
2023-01-31T18:24:01.326Z,3.85
2023-01-31T18:26:35.313Z,4.35
2023-01-31T18:29:08.301Z,4.03
2023-01-31T18:31:35.229Z,4.35
2023-01-31T18:34:08.364Z,4.30
2023-01-31T18:36:35.155Z,4.53
2023-01-31T18:39:08.324Z,4.72
2023-01-31T18:41:35.164Z,4.60
2023-01-31T18:44:08.352Z,4.70
2023-01-31T18:46:41.411Z,6.30
2023-01-31T18:49:08.307Z,4.88
2023-01-31T18:51:48.424Z,5.97
2023-01-31T18:54:15.742Z,5.25
2023-01-31T18:56:50.375Z,5.00
2023-01-31T18:59:17.195Z,5.25
2023-01-31T19:01:50.430Z,4.50
2023-01-31T19:04:23.392Z,4.40
2023-01-31T19:06:51.471Z,4.18
2023-01-31T19:09:25.399Z,5.00
2023-01-31T19:11:58.409Z,4.60
2023-01-31T19:14:31.391Z,4.35
2023-01-31T19:17:04.393Z,4.57
2023-01-31T19:19:31.223Z,4.97
2023-01-31T19:22:04.387Z,5.10
2023-01-31T19:24:31.140Z,4.93
2023-01-31T19:27:04.425Z,4.05
2023-01-31T19:29:39.657Z,4.85
2023-01-31T19:32:13.424Z,4.30
2023-01-31T19:34:46.448Z,3.97
2023-01-31T19:37:20.420Z,4.22
2023-01-31T19:39:50.275Z,4.75
2023-01-31T19:42:23.462Z,5.15
2023-01-31T19:44:56.467Z,4.55
2023-01-31T19:47:24.948Z,4.28
2023-01-31T19:49:52.017Z,4.65
2023-01-31T19:52:26.440Z,5.05
2023-01-31T19:55:00.482Z,3.97
2023-01-31T19:57:27.379Z,4.35
2023-01-31T20:00:00.463Z,4.03
2023-01-31T20:02:27.503Z,3.80
2023-01-31T20:05:02.495Z,4.47
2023-01-31T20:07:29.351Z,3.72
2023-01-31T20:10:02.804Z,4.05
2023-01-31T20:12:29.848Z,4.72
2023-01-31T20:14:56.578Z,3.72
2023-01-31T20:17:31.505Z,4.38
2023-01-31T20:20:04.641Z,4.40
2023-01-31T20:22:31.772Z,5.28
2023-01-31T20:25:05.516Z,5.50
2023-01-31T20:27:35.419Z,5.15
2023-01-31T20:30:02.261Z,5.22
2023-01-31T20:32:35.501Z,4.70
2023-01-31T20:35:08.551Z,4.22
2023-01-31T20:37:35.469Z,4.35
2023-01-31T20:40:08.516Z,5.38
2023-01-31T20:42:41.528Z,4.80
2023-01-31T20:45:08.806Z,3.97
2023-01-31T20:47:42.607Z,4.20
2023-01-31T20:50:10.390Z,5.10
2023-01-31T20:52:45.594Z,4.63
2023-01-31T20:55:18.642Z,4.68
2023-01-31T20:57:49.927Z,3.97
2023-01-31T21:00:27.591Z,4.88
2023-01-31T21:02:54.497Z,4.25
2023-01-31T21:05:30.663Z,4.05
2023-01-31T21:07:58.354Z,3.40
2023-01-31T21:10:35.581Z,3.83
2023-01-31T21:13:02.327Z,4.82
2023-01-31T21:15:35.640Z,4.65
2023-01-31T21:18:02.544Z,4.35
2023-01-31T21:20:36.591Z,4.35
2023-01-31T21:23:03.905Z,4.20
2023-01-31T21:25:37.612Z,4.05
2023-01-31T21:28:04.825Z,3.83
2023-01-31T21:30:38.741Z,4.13
2023-01-31T21:33:05.784Z,3.95
2023-01-31T21:35:39.587Z,4.78
2023-01-31T21:38:12.635Z,4.80
2023-01-31T21:40:40.644Z,4.07
2023-01-31T21:43:14.636Z,3.95
2023-01-31T21:45:41.506Z,5.05
2023-01-31T21:48:35.632Z,3.53
2023-01-31T21:51:15.655Z,3.53
2023-01-31T21:53:43.080Z,4.18
2023-01-31T21:56:21.662Z,4.10
2023-01-31T21:58:48.984Z,3.75
2023-01-31T22:01:28.821Z,3.90
2023-01-31T22:03:56.502Z,3.20
2023-01-31T22:06:41.666Z,3.53
2023-01-31T22:09:11.699Z,3.55
2023-01-31T22:11:48.712Z,2.75
2023-01-31T22:14:16.924Z,3.47
2023-01-31T22:16:50.694Z,2.45
2023-01-31T22:19:23.864Z,3.35
2023-01-31T22:21:50.994Z,3.42
2023-01-31T22:24:24.757Z,3.15
2023-01-31T22:26:51.862Z,2.90
2023-01-31T22:29:18.657Z,2.72
2023-01-31T22:31:51.807Z,2.95
2023-01-31T22:34:18.905Z,2.25
2023-01-31T22:36:58.740Z,2.00
2023-01-31T22:39:31.716Z,2.20
2023-01-31T22:41:58.489Z,2.10
2023-01-31T22:44:25.302Z,1.70
2023-01-31T22:46:58.733Z,1.98
2023-01-31T22:49:31.690Z,2.40
2023-01-31T22:52:04.719Z,2.50
2023-01-31T22:54:38.321Z,2.47
2023-01-31T22:57:11.776Z,2.83
2023-01-31T22:59:38.580Z,2.47
2023-01-31T23:02:12.737Z,2.83
2023-01-31T23:04:39.651Z,3.95
2023-01-31T23:07:06.434Z,3.30
2023-01-31T23:09:39.770Z,2.95
2023-01-31T23:12:06.932Z,3.95
2023-01-31T23:14:39.712Z,4.47
2023-01-31T23:17:25.057Z,3.80
2023-01-31T23:19:58.893Z,3.65
2023-01-31T23:22:32.047Z,3.83
2023-01-31T23:25:05.767Z,3.33
2023-01-31T23:27:32.969Z,3.58
2023-01-31T23:30:06.839Z,4.18
2023-01-31T23:32:34.423Z,3.95
2023-01-31T23:35:01.225Z,2.78
2023-01-31T23:37:38.820Z,3.63
2023-01-31T23:40:07.647Z,3.65
2023-01-31T23:42:40.844Z,3.28
2023-01-31T23:45:08.397Z,4.03
2023-01-31T23:47:41.838Z,3.20
2023-01-31T23:50:10.176Z,3.42
2023-01-31T23:52:36.933Z,3.63
2023-01-31T23:55:10.845Z,2.88
2023-01-31T23:57:43.807Z,3.80
